釧路空港の過去48時間の天気

釧路空港 (Kushiro)

現在時刻: 7/17 18:44 JST (7/17 09:44 UTC) 以下の時間は現地時間です。

過去48時間のMETAR気象情報
時間 風向 風速(m/s) 視程 気温(℃) 湿度(%) 気圧(hPa) 天気現象
17 18:00 3 10km以上 17 83 1010
17 17:00 3 10km以上 18 83 1009
17 16:00 3 10km以上 19 78 1009
17 15:00 3 10km以上 20 78 1009
17 14:00 5 10km以上 20 73 1009
17 13:00 5 10km以上 20 73 1009
17 12:00 南南西 5 10km以上 21 78 1009
17 11:00 4 10km以上 22 73 1009
17 10:00 2 10km以上 19 83 1009
17 09:00 東北東 2 10km以上 19 88 1009
17 08:00 東北東 3 10km以上 18 88 1009
17 07:00 北北東 2 10km以上 18 83 1010
17 06:45 北東 2 10km以上 18 83 1010
RJCK 170900Z 18006KT 9999 FEW020 BKN035 17/14 Q1010
RJCK 170800Z 18005KT 9999 FEW015 SCT030 BKN040 18/15 Q1009
RJCK 170700Z 19005KT 9999 FEW015 SCT030 BKN050 19/15 Q1009
RJCK 170600Z 18006KT 140V210 9999 FEW030 SCT070 BKN150 20/16 Q1009
RJCK 170500Z 19009KT 9999 FEW040 SCT080 BKN100 20/15 Q1009
RJCK 170400Z 17009KT 9999 FEW030 SCT070 BKN100 20/15 Q1009
RJCK 170300Z 20010KT 9999 FEW030 SCT070 BKN100 21/17 Q1009
RJCK 170200Z 18008KT 140V220 9999 FEW015 SCT030 BKN150 22/17 Q1009
RJCK 170100Z 18003KT 110V260 9999 FEW008 SCT015 BKN030 19/16 Q1009
RJCK 170000Z 06003KT 360V110 9999 FEW008 SCT012 BKN015 19/17 Q1009
RJCK 162300Z 07006KT 030V110 9999 FEW005 SCT008 BKN012 18/16 Q1009
RJCK 162200Z 03003KT 350V120 9999 FEW005 SCT150 18/15 Q1010
RJCK 162145Z 04003KT 340V080 9999 FEW005 SCT150 18/15 Q1010 RMK 1ST005 3AC150 A2983